Time;durP1;ratioP1;P1;durP2;ratioP2;P2;SDS_P1;SDS_P2;PMS_P1;PMS_P2;Temp;Humidity;BMP_temperature;BMP_pressure;BME280_temperature;BME280_humidity;BME280_pressure;Samples;Min_cycle;Max_cycle;Signal;HPM_P1;HPM_P2
2021/05/24 00:02:12;;;;;;;4.38;2.53;;;20.00;99.90;;;;;;4991478;28;20033;-76
2021/05/24 00:04:38;;;;;;;5.40;2.65;;;20.00;99.90;;;;;;5005105;28;20037;-80
2021/05/24 00:07:05;;;;;;;4.90;2.38;;;20.00;99.90;;;;;;4990055;28;20039;-83
2021/05/24 00:09:31;;;;;;;11.35;2.42;;;20.00;99.90;;;;;;4992440;28;20041;-84
2021/05/24 00:11:57;;;;;;;5.40;2.28;;;20.00;99.90;;;;;;4993204;28;20041;-75
2021/05/24 00:14:26;;;;;;;4.20;2.00;;;20.10;99.90;;;;;;4993245;28;20463;-77
2021/05/24 00:16:52;;;;;;;7.72;2.78;;;20.00;99.90;;;;;;4993369;28;20054;-84
2021/05/24 00:19:18;;;;;;;5.18;2.95;;;20.10;99.90;;;;;;4993294;28;20475;-83
2021/05/24 00:21:44;;;;;;;4.15;2.97;;;20.10;99.90;;;;;;4993552;28;20494;-75
2021/05/24 00:24:10;;;;;;;5.20;2.63;;;20.10;99.90;;;;;;4993298;28;20034;-83
2021/05/24 00:26:36;;;;;;;5.25;2.63;;;20.00;99.90;;;;;;4992102;28;20038;-78
2021/05/24 00:29:02;;;;;;;5.03;3.20;;;20.00;99.90;;;;;;4993042;28;20058;-84
2021/05/24 00:31:28;;;;;;;5.95;3.13;;;20.00;99.90;;;;;;4993406;28;20125;-84
2021/05/24 00:33:54;;;;;;;9.27;2.88;;;20.00;99.90;;;;;;4993060;28;20058;-83
2021/05/24 00:36:20;;;;;;;4.37;2.57;;;20.10;99.90;;;;;;4993160;28;20058;-76
2021/05/24 00:38:46;;;;;;;6.70;3.15;;;20.10;99.90;;;;;;4993070;28;20022;-83
2021/05/24 00:41:12;;;;;;;6.10;3.30;;;20.00;99.90;;;;;;4992981;28;20086;-79
2021/05/24 00:43:38;;;;;;;10.07;3.05;;;20.00;99.90;;;;;;4993035;28;20026;-83
2021/05/24 00:46:04;;;;;;;6.30;3.00;;;20.00;99.90;;;;;;4993243;28;20045;-83
2021/05/24 00:48:30;;;;;;;10.13;3.13;;;19.90;99.90;;;;;;4992947;28;20034;-75
2021/05/24 00:50:56;;;;;;;4.05;2.60;;;19.90;99.90;;;;;;4992940;28;20268;-83
2021/05/24 00:53:22;;;;;;;11.30;3.88;;;20.00;99.90;;;;;;4992847;28;20034;-84
2021/05/24 00:55:48;;;;;;;7.67;2.67;;;20.00;99.90;;;;;;4992899;28;20019;-84
2021/05/24 00:58:14;;;;;;;8.68;3.35;;;19.90;99.90;;;;;;4992555;28;20087;-83
2021/05/24 01:00:43;;;;;;;9.13;3.72;;;19.90;99.90;;;;;;4991419;28;20483;-83
2021/05/24 01:03:11;;;;;;;11.15;3.03;;;19.90;99.90;;;;;;4992569;28;20034;-84
2021/05/24 01:05:38;;;;;;;6.53;2.63;;;19.80;99.90;;;;;;4992650;28;20127;-76
2021/05/24 01:08:05;;;;;;;8.45;3.28;;;19.80;99.90;;;;;;4992834;28;20034;-83
2021/05/24 01:10:31;;;;;;;5.18;2.50;;;19.80;99.90;;;;;;4991566;28;20391;-84
2021/05/24 01:12:58;;;;;;;7.95;2.92;;;19.80;99.90;;;;;;4993410;28;20493;-76
2021/05/24 01:15:25;;;;;;;4.70;2.63;;;19.80;99.90;;;;;;5008528;28;20047;-76
2021/05/24 01:17:54;;;;;;;7.95;2.97;;;19.90;99.90;;;;;;4992499;28;20045;-76
2021/05/24 01:20:20;;;;;;;6.05;3.15;;;19.90;99.90;;;;;;4991769;28;20030;-76
2021/05/24 01:22:57;;;;;;;4.43;2.67;;;19.80;99.90;;;;;;4992381;28;20038;-78
2021/05/24 01:25:23;;;;;;;6.75;2.63;;;19.90;99.90;;;;;;4992367;28;20035;-83
2021/05/24 01:27:49;;;;;;;9.13;3.00;;;19.90;99.90;;;;;;4992478;28;20106;-77
2021/05/24 01:30:15;;;;;;;4.67;2.37;;;19.80;99.90;;;;;;4992418;28;20049;-81
2021/05/24 01:32:41;;;;;;;7.90;3.05;;;19.80;99.90;;;;;;4992218;28;20362;-79
2021/05/24 01:35:07;;;;;;;5.07;2.60;;;19.80;99.90;;;;;;4992156;28;20440;-84
2021/05/24 01:37:33;;;;;;;8.93;3.17;;;19.80;99.90;;;;;;4992267;28;20339;-84
2021/05/24 01:40:01;;;;;;;3.83;2.10;;;19.80;99.90;;;;;;4991996;28;20035;-76
2021/05/24 01:42:27;;;;;;;5.40;2.60;;;19.80;99.90;;;;;;4992212;28;20030;-84
2021/05/24 01:44:52;;;;;;;6.65;2.45;;;19.90;99.90;;;;;;4991991;28;20105;-76
2021/05/24 01:47:18;;;;;;;7.27;2.70;;;19.90;99.90;;;;;;4991974;28;20129;-76
2021/05/24 01:49:47;;;;;;;2.93;2.03;;;19.90;99.90;;;;;;4991960;28;20034;-76
2021/05/24 01:52:14;;;;;;;6.47;3.03;;;19.80;99.90;;;;;;4991860;28;20312;-76
2021/05/24 01:54:42;;;;;;;5.32;2.92;;;19.80;99.90;;;;;;4991832;28;20056;-84
2021/05/24 01:57:08;;;;;;;5.22;2.40;;;19.90;99.90;;;;;;4990726;28;20022;-80
2021/05/24 01:59:35;;;;;;;5.53;3.10;;;19.80;99.90;;;;;;4992042;28;20037;-83
2021/05/24 02:02:02;;;;;;;7.03;3.22;;;19.80;99.90;;;;;;4991624;28;20025;-82
2021/05/24 02:04:28;;;;;;;6.28;2.35;;;19.80;99.90;;;;;;4991761;28;20030;-76
2021/05/24 02:06:53;;;;;;;6.18;2.67;;;19.80;99.90;;;;;;4991608;28;20095;-81
2021/05/24 02:09:19;;;;;;;7.63;2.90;;;19.70;99.90;;;;;;4991626;28;20542;-84
2021/05/24 02:11:46;;;;;;;11.27;2.92;;;19.70;99.90;;;;;;4991608;28;20482;-76
2021/05/24 02:14:12;;;;;;;5.00;3.28;;;19.70;99.90;;;;;;4991249;28;20517;-85
2021/05/24 02:16:47;;;;;;;5.35;2.60;;;19.60;99.90;;;;;;4991600;28;20112;-76
2021/05/24 02:19:15;;;;;;;7.22;3.33;;;19.50;99.90;;;;;;4991748;28;20030;-82
2021/05/24 02:21:41;;;;;;;7.70;3.42;;;19.50;99.90;;;;;;4991653;28;20183;-84
2021/05/24 02:24:08;;;;;;;6.43;2.78;;;19.40;99.90;;;;;;4992003;28;20163;-79
2021/05/24 02:26:36;;;;;;;7.30;2.70;;;19.40;99.90;;;;;;5005991;28;20056;-76
2021/05/24 02:29:04;;;;;;;9.82;2.53;;;19.40;99.90;;;;;;4991378;28;20026;-77
2021/05/24 02:31:30;;;;;;;4.78;2.40;;;19.40;99.90;;;;;;4990609;28;20117;-84
2021/05/24 02:33:56;;;;;;;6.60;3.13;;;19.40;99.90;;;;;;4990946;28;20097;-81
2021/05/24 02:36:24;;;;;;;9.20;2.43;;;19.40;99.90;;;;;;4991332;28;20034;-84
2021/05/24 02:38:50;;;;;;;5.57;3.38;;;19.40;99.90;;;;;;4991402;28;20625;-81
2021/05/24 02:41:16;;;;;;;4.43;3.15;;;19.40;99.90;;;;;;4991029;28;20403;-76
2021/05/24 02:43:43;;;;;;;4.28;2.80;;;19.40;99.90;;;;;;4991270;28;20117;-84
2021/05/24 02:46:09;;;;;;;12.73;3.33;;;19.40;99.90;;;;;;4990885;28;20042;-83
2021/05/24 02:48:35;;;;;;;4.93;2.30;;;19.40;99.90;;;;;;4991153;28;20026;-83
2021/05/24 02:51:02;;;;;;;7.50;2.72;;;19.40;99.90;;;;;;4991012;28;20027;-84
2021/05/24 02:53:28;;;;;;;7.53;3.90;;;19.30;99.90;;;;;;4991135;28;20026;-78
2021/05/24 02:55:54;;;;;;;9.07;3.47;;;19.30;99.90;;;;;;4991056;28;20501;-77
2021/05/24 02:58:20;;;;;;;6.13;3.33;;;19.30;99.90;;;;;;4990942;28;20400;-85
2021/05/24 03:00:46;;;;;;;7.28;3.83;;;19.20;99.90;;;;;;4991048;28;20319;-83
2021/05/24 03:03:13;;;;;;;10.35;4.00;;;19.20;99.90;;;;;;4990891;28;20436;-76
2021/05/24 03:05:39;;;;;;;7.68;3.47;;;19.20;99.90;;;;;;4989844;28;20386;-81
2021/05/24 03:08:05;;;;;;;9.23;4.47;;;19.20;99.90;;;;;;4990989;28;20027;-81
2021/05/24 03:10:32;;;;;;;8.45;3.65;;;19.20;99.90;;;;;;4990990;28;20030;-84
2021/05/24 03:12:58;;;;;;;10.25;3.95;;;19.20;99.90;;;;;;4990589;28;20264;-76
2021/05/24 03:15:25;;;;;;;8.57;4.00;;;19.20;99.90;;;;;;4990579;28;20054;-76
2021/05/24 03:17:52;;;;;;;6.80;3.30;;;19.20;99.90;;;;;;4990610;28;20841;-76
2021/05/24 03:20:18;;;;;;;9.90;3.72;;;19.20;99.90;;;;;;4990502;28;20041;-77
2021/05/24 03:22:46;;;;;;;11.60;4.10;;;19.30;99.90;;;;;;4990578;28;20390;-84
2021/05/24 03:25:14;;;;;;;7.85;3.22;;;19.30;99.90;;;;;;4990751;28;20144;-84
2021/05/24 03:27:40;;;;;;;7.03;3.75;;;19.30;99.90;;;;;;4990608;28;20030;-84
2021/05/24 03:30:08;;;;;;;10.35;3.63;;;19.30;99.90;;;;;;4990457;28;20363;-77
2021/05/24 03:32:34;;;;;;;5.22;3.10;;;19.30;99.90;;;;;;4990347;28;20053;-83
2021/05/24 03:35:01;;;;;;;8.40;3.33;;;19.30;99.90;;;;;;4990953;28;20022;-77
2021/05/24 03:37:27;;;;;;;10.25;5.03;;;19.30;99.90;;;;;;5000973;28;20091;-76
2021/05/24 03:39:53;;;;;;;5.63;3.13;;;19.40;99.90;;;;;;4993308;28;20471;-84
2021/05/24 03:42:18;;;;;;;8.93;3.80;;;19.40;99.90;;;;;;4990386;28;20273;-79
2021/05/24 03:44:45;;;;;;;5.43;3.05;;;19.40;99.90;;;;;;4993123;28;20034;-84
2021/05/24 03:47:13;;;;;;;4.97;2.63;;;19.40;99.90;;;;;;4993735;28;20074;-76
2021/05/24 03:49:44;;;;;;;9.07;3.22;;;19.40;99.90;;;;;;4993833;28;20022;-83
2021/05/24 03:52:14;;;;;;;5.22;2.83;;;19.40;99.90;;;;;;4993626;28;20521;-83
2021/05/24 03:54:40;;;;;;;8.30;3.28;;;19.40;99.90;;;;;;4993731;28;20116;-84
2021/05/24 03:57:07;;;;;;;4.45;3.33;;;19.40;99.90;;;;;;4993629;28;20107;-78
2021/05/24 03:59:33;;;;;;;6.90;3.72;;;19.40;99.90;;;;;;4993585;28;20031;-76
2021/05/24 04:01:59;;;;;;;7.90;3.33;;;19.40;99.90;;;;;;4993680;28;20022;-81
2021/05/24 04:04:25;;;;;;;7.63;3.13;;;19.40;99.90;;;;;;4992601;28;20281;-84
2021/05/24 04:06:55;;;;;;;10.45;3.17;;;19.40;99.90;;;;;;4993654;28;20518;-76
2021/05/24 04:09:22;;;;;;;8.27;3.67;;;19.40;99.90;;;;;;4993421;28;20152;-84
2021/05/24 04:11:48;;;;;;;4.03;2.95;;;19.30;99.90;;;;;;4993423;28;20076;-84
2021/05/24 04:14:14;;;;;;;6.95;3.03;;;19.30;99.90;;;;;;4993312;28;20430;-76
2021/05/24 04:16:40;;;;;;;6.88;3.53;;;19.30;99.90;;;;;;4993430;28;20034;-84
2021/05/24 04:19:12;;;;;;;7.25;3.95;;;19.30;99.90;;;;;;4993421;28;20038;-78
2021/05/24 04:21:42;;;;;;;12.45;4.50;;;19.30;99.90;;;;;;4993695;28;20033;-78
2021/05/24 04:24:11;;;;;;;6.70;3.70;;;19.30;99.90;;;;;;4993320;28;20036;-85
2021/05/24 04:26:38;;;;;;;5.22;3.70;;;19.30;99.90;;;;;;4993232;28;20035;-75
2021/05/24 04:29:04;;;;;;;8.65;4.80;;;19.30;99.90;;;;;;4993093;28;20026;-83
2021/05/24 04:31:30;;;;;;;8.98;4.55;;;19.30;99.90;;;;;;4993046;28;20034;-76
2021/05/24 04:33:56;;;;;;;8.48;4.80;;;19.30;99.90;;;;;;4993014;28;20073;-80
2021/05/24 04:36:22;;;;;;;8.85;5.15;;;19.30;99.90;;;;;;4993193;28;20495;-77
2021/05/24 04:38:48;;;;;;;7.40;3.80;;;19.30;99.90;;;;;;4993364;28;20037;-77
2021/05/24 04:41:14;;;;;;;7.88;4.13;;;19.30;99.90;;;;;;4992968;28;20034;-77
2021/05/24 04:43:41;;;;;;;7.80;4.68;;;19.40;99.90;;;;;;4992982;28;20026;-85
2021/05/24 04:46:07;;;;;;;8.68;4.35;;;19.40;99.90;;;;;;4993607;28;20038;-85
2021/05/24 04:48:36;;;;;;;13.43;4.57;;;19.50;99.90;;;;;;5002141;28;20022;-80
2021/05/24 04:51:03;;;;;;;6.82;4.40;;;19.50;99.90;;;;;;4995401;28;20039;-85
2021/05/24 04:53:33;;;;;;;13.65;4.35;;;19.60;99.90;;;;;;4992929;28;20514;-85
2021/05/24 04:55:58;;;;;;;6.97;3.55;;;19.60;99.90;;;;;;4991663;28;20490;-81
2021/05/24 04:58:24;;;;;;;7.82;4.18;;;19.60;99.90;;;;;;4992956;28;20041;-78
2021/05/24 05:00:51;;;;;;;7.67;4.03;;;19.70;99.90;;;;;;4991797;28;20477;-77
2021/05/24 05:03:17;;;;;;;6.85;3.75;;;19.60;99.90;;;;;;4992732;28;20122;-85
2021/05/24 05:05:43;;;;;;;6.68;4.13;;;19.70;99.90;;;;;;4992755;28;20113;-85
2021/05/24 05:08:09;;;;;;;131.27;18.30;;;19.70;99.90;;;;;;4992546;28;20106;-86
2021/05/24 05:10:35;;;;;;;31.38;6.10;;;19.80;99.90;;;;;;4992526;28;20036;-77
2021/05/24 05:13:01;;;;;;;7.75;3.80;;;19.80;99.90;;;;;;4992366;28;20511;-84
2021/05/24 05:15:27;;;;;;;10.57;3.90;;;19.80;99.90;;;;;;4992479;28;20043;-85
2021/05/24 05:17:53;;;;;;;53.10;10.95;;;19.80;99.90;;;;;;4992599;28;20470;-85
2021/05/24 05:20:19;;;;;;;11.00;4.32;;;19.80;99.90;;;;;;4992413;28;20041;-78
2021/05/24 05:22:45;;;;;;;8.43;3.45;;;19.80;99.90;;;;;;4992435;28;20508;-77
2021/05/24 05:25:11;;;;;;;9.07;3.13;;;19.90;99.90;;;;;;4992203;28;20487;-85
2021/05/24 05:27:37;;;;;;;4.88;2.83;;;19.80;99.90;;;;;;4991121;28;20454;-77
2021/05/24 05:30:05;;;;;;;16.08;4.53;;;19.80;99.90;;;;;;4992437;28;20114;-85
2021/05/24 05:32:31;;;;;;;5.22;2.95;;;19.80;99.90;;;;;;4992238;28;20486;-78
2021/05/24 05:34:57;;;;;;;6.03;2.77;;;19.90;99.90;;;;;;4992115;28;20031;-77
2021/05/24 05:37:22;;;;;;;6.07;3.03;;;20.00;99.90;;;;;;4992481;28;20360;-85
2021/05/24 05:39:53;;;;;;;6.57;2.58;;;20.00;99.90;;;;;;4991085;28;20036;-85
2021/05/24 05:42:20;;;;;;;4.28;2.80;;;20.10;99.90;;;;;;4991932;28;20033;-85
2021/05/24 05:44:47;;;;;;;4.90;2.63;;;20.20;99.90;;;;;;4992210;28;20042;-85
2021/05/24 05:47:13;;;;;;;10.85;2.88;;;20.20;99.90;;;;;;4992014;28;20099;-86
2021/05/24 05:49:39;;;;;;;5.85;2.22;;;20.30;99.90;;;;;;4992032;28;20022;-86
2021/05/24 05:52:05;;;;;;;3.67;2.20;;;20.30;99.90;;;;;;4992028;28;20034;-74
2021/05/24 05:54:31;;;;;;;5.03;2.78;;;20.30;99.90;;;;;;4992279;28;20496;-84
2021/05/24 05:56:57;;;;;;;5.05;2.92;;;20.40;99.90;;;;;;4992104;28;20034;-83
2021/05/24 05:59:23;;;;;;;4.97;2.72;;;20.50;99.90;;;;;;4999925;28;20018;-75
2021/05/24 06:01:49;;;;;;;7.32;2.97;;;20.50;99.90;;;;;;4999742;28;20371;-78
2021/05/24 06:04:15;;;;;;;4.43;2.40;;;20.60;99.90;;;;;;4991804;28;20087;-83
2021/05/24 06:06:41;;;;;;;3.17;1.77;;;20.60;99.90;;;;;;4991582;28;20041;-75
2021/05/24 06:09:07;;;;;;;3.97;2.27;;;20.60;99.90;;;;;;4991865;28;20069;-75
2021/05/24 06:11:32;;;;;;;6.03;2.30;;;20.70;99.90;;;;;;4991850;28;20333;-84
2021/05/24 06:13:58;;;;;;;3.87;2.33;;;20.70;99.90;;;;;;4991574;28;20122;-83
2021/05/24 06:16:24;;;;;;;2.83;2.00;;;20.70;99.90;;;;;;4992023;28;20368;-82
2021/05/24 06:18:50;;;;;;;2.97;1.80;;;20.70;99.90;;;;;;4991651;28;20356;-84
2021/05/24 06:21:16;;;;;;;5.60;2.10;;;20.80;99.90;;;;;;4991639;28;20269;-78
2021/05/24 06:23:45;;;;;;;4.25;1.85;;;20.90;99.90;;;;;;4991595;28;20319;-82
2021/05/24 06:26:12;;;;;;;3.17;2.20;;;20.90;99.90;;;;;;4991398;28;20034;-82
2021/05/24 06:28:38;;;;;;;4.22;2.38;;;21.00;99.90;;;;;;4991477;28;20057;-83
2021/05/24 06:31:04;;;;;;;3.50;1.77;;;21.10;99.90;;;;;;4991352;28;20033;-75
2021/05/24 06:33:30;;;;;;;4.13;1.90;;;21.10;99.90;;;;;;4991848;28;20026;-85
2021/05/24 06:35:56;;;;;;;6.83;2.67;;;21.20;99.90;;;;;;4991348;28;20026;-78
2021/05/24 06:38:22;;;;;;;3.30;1.38;;;21.10;99.90;;;;;;4991443;28;20475;-75
2021/05/24 06:40:48;;;;;;;3.20;2.05;;;21.10;99.90;;;;;;4991842;28;20036;-74
2021/05/24 06:43:14;;;;;;;6.93;2.33;;;21.20;99.90;;;;;;4991288;28;20466;-74
2021/05/24 06:45:40;;;;;;;5.70;1.90;;;21.20;99.90;;;;;;4991097;28;20134;-75
2021/05/24 06:48:06;;;;;;;4.80;2.73;;;21.20;99.90;;;;;;4991270;28;20603;-76
2021/05/24 06:50:32;;;;;;;6.63;2.45;;;21.30;99.90;;;;;;4990106;28;20035;-77
2021/05/24 06:52:58;;;;;;;6.83;2.23;;;21.20;99.90;;;;;;4990828;28;20093;-75
2021/05/24 06:55:24;;;;;;;5.60;2.97;;;21.40;99.90;;;;;;4990929;28;20441;-75
2021/05/24 06:57:49;;;;;;;4.80;2.37;;;21.50;99.90;;;;;;4990881;28;20038;-75
2021/05/24 07:00:16;;;;;;;5.30;2.70;;;21.60;99.90;;;;;;4990954;28;20273;-75
2021/05/24 07:02:42;;;;;;;4.22;2.20;;;21.70;99.90;;;;;;4991058;28;20022;-79
2021/05/24 07:05:09;;;;;;;6.00;2.50;;;21.80;99.90;;;;;;4989445;28;20031;-84
2021/05/24 07:07:36;;;;;;;4.00;2.90;;;21.80;99.90;;;;;;4990838;28;20080;-80
2021/05/24 07:10:03;;;;;;;5.38;2.60;;;21.90;99.90;;;;;;4992628;28;20026;-76
2021/05/24 07:12:29;;;;;;;3.35;1.75;;;22.00;99.90;;;;;;4997618;28;20034;-85
2021/05/24 07:14:56;;;;;;;4.05;1.95;;;22.00;97.90;;;;;;4990595;28;20403;-75
2021/05/24 07:17:22;;;;;;;7.10;1.95;;;22.00;97.90;;;;;;4990750;28;20367;-77
2021/05/24 07:19:48;;;;;;;7.18;2.33;;;22.10;98.40;;;;;;4990121;28;20026;-84
2021/05/24 07:22:14;;;;;;;4.68;1.98;;;22.10;98.20;;;;;;4990465;28;20076;-80
2021/05/24 07:24:40;;;;;;;4.65;2.10;;;22.20;98.40;;;;;;4990563;28;20538;-80
2021/05/24 07:27:06;;;;;;;8.60;1.77;;;22.30;98.60;;;;;;4990570;28;20125;-74
2021/05/24 07:29:32;;;;;;;4.82;1.60;;;22.30;97.80;;;;;;4990569;28;20026;-75
2021/05/24 07:31:59;;;;;;;5.10;2.53;;;22.40;97.20;;;;;;4990545;28;20030;-74
2021/05/24 07:34:25;;;;;;;3.70;1.90;;;22.50;97.30;;;;;;4990661;28;20460;-82
2021/05/24 07:36:51;;;;;;;4.05;1.60;;;22.50;97.00;;;;;;4990545;28;20467;-76
2021/05/24 07:39:17;;;;;;;4.00;1.65;;;22.60;96.70;;;;;;4990270;28;20040;-81
2021/05/24 07:41:43;;;;;;;6.67;1.73;;;22.70;96.40;;;;;;4990305;28;20019;-76
2021/05/24 07:44:09;;;;;;;3.20;1.70;;;22.70;95.50;;;;;;4990476;28;20069;-77
2021/05/24 07:46:35;;;;;;;2.90;1.42;;;22.90;95.80;;;;;;4990369;28;20781;-79
2021/05/24 07:49:01;;;;;;;5.75;1.65;;;23.00;95.30;;;;;;4990469;28;20037;-76
2021/05/24 07:51:27;;;;;;;3.67;1.40;;;23.00;95.30;;;;;;4990264;28;20467;-76
2021/05/24 07:53:54;;;;;;;3.57;2.40;;;23.20;95.10;;;;;;4990408;28;20038;-76
2021/05/24 07:56:20;;;;;;;3.35;1.60;;;23.20;95.20;;;;;;4990203;28;20022;-81
2021/05/24 07:58:46;;;;;;;4.63;1.75;;;23.30;95.30;;;;;;4990250;28;20030;-76
2021/05/24 08:01:12;;;;;;;5.50;1.53;;;23.40;94.40;;;;;;4990283;28;20057;-87
2021/05/24 08:03:38;;;;;;;2.80;1.40;;;23.40;94.00;;;;;;4990393;28;20670;-76
2021/05/24 08:06:04;;;;;;;2.33;1.67;;;23.40;93.60;;;;;;4990123;28;20130;-76
2021/05/24 08:08:30;;;;;;;3.20;1.50;;;23.50;93.30;;;;;;4990024;28;20160;-76
2021/05/24 08:10:56;;;;;;;2.63;1.57;;;23.60;93.30;;;;;;4990127;28;20080;-76
2021/05/24 08:13:25;;;;;;;7.40;1.73;;;23.60;93.40;;;;;;4990170;28;20026;-76
2021/05/24 08:15:52;;;;;;;6.00;1.77;;;23.60;93.40;;;;;;4989879;28;20042;-85
2021/05/24 08:18:18;;;;;;;5.38;2.55;;;23.80;93.50;;;;;;4989312;28;20050;-87
2021/05/24 08:20:43;;;;;;;3.17;1.48;;;23.90;93.00;;;;;;4991799;28;20475;-80
2021/05/24 08:23:09;;;;;;;6.77;2.07;;;24.00;92.10;;;;;;5003130;28;20045;-78
2021/05/24 08:25:35;;;;;;;7.70;1.88;;;24.00;92.10;;;;;;4990096;28;20069;-82
2021/05/24 08:28:01;;;;;;;2.97;1.52;;;24.10;92.00;;;;;;4988901;28;20066;-79
2021/05/24 08:30:27;;;;;;;4.70;1.45;;;24.20;92.00;;;;;;4992342;28;20072;-82
2021/05/24 08:32:53;;;;;;;6.37;2.13;;;24.40;91.90;;;;;;4993559;28;20506;-79
2021/05/24 08:35:20;;;;;;;4.67;1.77;;;24.50;91.80;;;;;;4993458;28;20284;-77
2021/05/24 08:37:45;;;;;;;4.38;1.75;;;24.60;91.20;;;;;;4993327;28;20448;-79
2021/05/24 08:40:12;;;;;;;4.73;1.30;;;24.70;91.30;;;;;;4993074;28;20022;-81
2021/05/24 08:42:42;;;;;;;3.05;1.67;;;24.80;90.50;;;;;;4993166;28;20030;-79
2021/05/24 08:45:09;;;;;;;4.53;1.42;;;24.90;90.40;;;;;;4992885;28;20052;-76
2021/05/24 08:47:35;;;;;;;3.75;1.20;;;25.00;89.30;;;;;;4993214;28;20041;-77
2021/05/24 08:50:01;;;;;;;4.97;1.80;;;25.10;89.70;;;;;;4993219;28;20467;-76
2021/05/24 08:52:28;;;;;;;6.30;1.55;;;25.20;89.40;;;;;;4993144;28;20030;-87
2021/05/24 08:54:54;;;;;;;4.90;1.40;;;25.20;88.60;;;;;;4993066;28;20101;-81
2021/05/24 08:57:21;;;;;;;4.93;1.67;;;25.30;88.20;;;;;;4992998;28;20084;-86
2021/05/24 08:59:47;;;;;;;5.95;1.55;;;25.40;87.70;;;;;;4992908;28;20034;-76
2021/05/24 09:02:13;;;;;;;3.05;1.75;;;25.50;87.90;;;;;;4992626;28;20033;-79
2021/05/24 09:04:50;;;;;;;2.65;1.40;;;25.70;88.10;;;;;;4992845;28;20062;-86
2021/05/24 09:07:17;;;;;;;3.25;1.67;;;25.80;87.40;;;;;;4992639;28;20054;-76
2021/05/24 09:10:13;;;;;;;3.88;1.83;;;26.00;86.90;;;;;;4992948;28;20030;-76
2021/05/24 09:12:39;;;;;;;3.70;2.10;;;26.10;87.30;;;;;;5001080;28;20117;-78
2021/05/24 09:15:10;;;;;;;2.73;2.00;;;26.30;86.80;;;;;;4991287;28;20557;-77
2021/05/24 09:17:48;;;;;;;3.63;1.80;;;26.40;86.30;;;;;;4991333;28;20034;-77
2021/05/24 09:20:20;;;;;;;2.65;1.67;;;26.50;85.10;;;;;;4991381;28;20038;-76
2021/05/24 09:23:07;;;;;;;4.38;1.77;;;26.60;84.60;;;;;;4992626;28;20035;-84
2021/05/24 09:25:49;;;;;;;3.88;2.13;;;26.60;84.50;;;;;;4992583;28;20141;-77
2021/05/24 09:28:51;;;;;;;4.78;1.65;;;26.80;83.90;;;;;;4992519;28;20471;-85
2021/05/24 09:31:26;;;;;;;4.28;2.05;;;26.80;83.40;;;;;;4993277;28;20030;-87
2021/05/24 09:33:54;;;;;;;5.68;1.67;;;27.00;82.40;;;;;;5007800;28;20026;-76
2021/05/24 09:36:20;;;;;;;5.68;2.00;;;27.00;82.20;;;;;;4993976;28;20037;-76
2021/05/24 09:38:51;;;;;;;5.22;1.92;;;27.20;81.80;;;;;;4992155;28;20041;-82
2021/05/24 09:41:21;;;;;;;2.25;1.65;;;27.30;81.40;;;;;;4991710;28;20030;-76
2021/05/24 09:43:52;;;;;;;4.60;1.42;;;27.50;77.50;;;;;;4992290;28;20407;-76
2021/05/24 09:46:26;;;;;;;5.03;1.85;;;27.60;77.40;;;;;;4990912;28;20041;-75
2021/05/24 09:48:55;;;;;;;3.10;1.92;;;27.70;77.10;;;;;;4990955;28;20479;-84
2021/05/24 09:51:26;;;;;;;5.53;1.77;;;27.90;79.30;;;;;;4990955;28;20033;-76
2021/05/24 09:54:09;;;;;;;4.95;1.38;;;28.00;75.60;;;;;;4991903;28;20113;-76
2021/05/24 09:56:38;;;;;;;4.00;1.50;;;28.20;73.40;;;;;;4992150;28;20034;-76
2021/05/24 09:59:08;;;;;;;3.30;1.95;;;28.30;69.50;;;;;;4992074;28;20033;-75
2021/05/24 10:01:41;;;;;;;5.97;1.85;;;28.40;68.70;;;;;;4991934;28;20030;-76
2021/05/24 10:04:07;;;;;;;;;;;28.60;68.60;;;;;;4992545;28;20029;-80
2021/05/24 10:06:34;;;;;;;1.90;1.35;;;28.70;65.40;;;;;;4991998;28;19918;-77
2021/05/24 10:09:01;;;;;;;3.53;1.48;;;28.90;64.70;;;;;;4991776;28;20026;-76
2021/05/24 10:11:29;;;;;;;4.13;1.30;;;29.10;63.20;;;;;;4992061;28;20101;-83
2021/05/24 10:13:55;;;;;;;3.95;1.52;;;29.10;60.60;;;;;;4991645;28;20034;-77
2021/05/24 10:16:22;;;;;;;4.10;1.65;;;29.20;59.80;;;;;;4991549;28;20464;-76
2021/05/24 10:18:48;;;;;;;4.70;1.27;;;29.20;56.70;;;;;;4990406;28;20058;-85
2021/05/24 10:21:14;;;;;;;3.45;1.10;;;29.20;57.50;;;;;;4991653;28;20114;-77
2021/05/24 10:23:40;;;;;;;2.03;1.25;;;29.30;57.50;;;;;;4991893;28;20026;-82
2021/05/24 10:26:08;;;;;;;4.20;1.00;;;29.60;58.40;;;;;;4991288;28;20050;-87
2021/05/24 10:28:34;;;;;;;2.47;0.90;;;29.60;58.50;;;;;;4991646;28;20075;-81
2021/05/24 10:31:02;;;;;;;3.17;1.10;;;29.90;57.50;;;;;;4991549;28;20045;-86
2021/05/24 10:33:42;;;;;;;4.93;1.00;;;30.00;57.50;;;;;;4991470;28;20034;-82
2021/05/24 10:36:23;;;;;;;2.33;1.08;;;30.20;56.00;;;;;;4991538;28;20437;-85
2021/05/24 10:39:05;;;;;;;5.05;1.05;;;30.40;56.00;;;;;;4990510;28;20456;-82
2021/05/24 10:41:55;;;;;;;1.33;0.90;;;30.40;55.20;;;;;;4991583;28;20035;-78
2021/05/24 10:44:24;;;;;;;3.17;1.00;;;30.50;55.30;;;;;;5001682;28;20042;-77
2021/05/24 10:46:51;;;;;;;2.58;1.33;;;30.50;55.80;;;;;;4997742;28;20045;-79
2021/05/24 10:49:23;;;;;;;1.27;0.95;;;30.60;55.10;;;;;;4991279;28;20041;-86
2021/05/24 10:51:59;;;;;;;1.73;0.93;;;30.60;55.50;;;;;;4991227;28;20041;-86
2021/05/24 10:54:28;;;;;;;1.77;1.00;;;30.80;55.00;;;;;;4990271;28;20035;-79
2021/05/24 10:57:00;;;;;;;2.88;1.10;;;30.60;54.60;;;;;;4990032;28;20425;-76
2021/05/24 10:59:45;;;;;;;2.53;0.85;;;30.80;54.40;;;;;;4990991;28;20566;-76
2021/05/24 11:02:31;;;;;;;4.25;1.00;;;31.10;54.40;;;;;;4990964;28;20030;-77
2021/05/24 11:05:08;;;;;;;1.00;0.77;;;31.10;52.60;;;;;;4991038;28;20030;-77
2021/05/24 11:07:35;;;;;;;1.38;1.00;;;31.20;52.10;;;;;;4991079;28;20046;-80
2021/05/24 11:10:16;;;;;;;1.67;0.88;;;31.20;51.70;;;;;;4991057;28;20018;-86
2021/05/24 11:13:12;;;;;;;1.88;1.00;;;31.10;51.20;;;;;;4990967;28;20030;-76
2021/05/24 11:15:42;;;;;;;2.47;0.93;;;31.20;51.40;;;;;;4998898;28;20054;-76
2021/05/24 11:18:08;;;;;;;1.40;1.08;;;31.30;50.90;;;;;;4990986;28;20026;-83
2021/05/24 11:20:51;;;;;;;2.30;1.50;;;31.20;50.80;;;;;;4990875;28;20661;-79
2021/05/24 11:28:52;;;;;;;1.50;1.10;;;31.40;49.40;;;;;;4990650;28;20395;-77
2021/05/24 11:31:25;;;;;;;1.93;1.30;;;31.50;48.60;;;;;;4990574;28;20091;-85
2021/05/24 11:33:56;;;;;;;1.77;1.65;;;31.50;48.50;;;;;;4989454;28;20034;-80
2021/05/24 11:36:40;;;;;;;1.60;1.10;;;31.50;47.40;;;;;;4990693;28;20031;-84
2021/05/24 11:39:19;;;;;;;2.47;1.52;;;31.70;47.20;;;;;;4990526;28;20038;-84
2021/05/24 11:42:02;;;;;;;2.00;1.40;;;31.70;46.90;;;;;;4990671;28;20057;-86
2021/05/24 11:44:35;;;;;;;1.95;1.10;;;31.90;47.10;;;;;;4990505;28;20110;-76
2021/05/24 11:47:03;;;;;;;1.70;1.08;;;31.90;47.50;;;;;;4990277;28;20436;-87
2021/05/24 11:49:42;;;;;;;2.45;0.82;;;32.10;48.00;;;;;;4990366;28;20449;-87
2021/05/24 11:52:10;;;;;;;3.08;1.20;;;32.10;46.20;;;;;;4990354;28;20035;-86
2021/05/24 11:54:37;;;;;;;1.02;0.90;;;32.10;47.30;;;;;;4991198;28;20057;-78
2021/05/24 11:57:06;;;;;;;0.95;0.70;;;32.00;46.40;;;;;;4998680;28;20110;-86
2021/05/24 11:59:33;;;;;;;5.28;0.90;;;31.90;46.90;;;;;;4990266;28;20065;-77
2021/05/24 12:02:02;;;;;;;1.08;0.70;;;31.90;47.10;;;;;;4990333;28;20053;-85
2021/05/24 12:04:31;;;;;;;0.85;0.80;;;31.90;47.30;;;;;;4991310;28;20045;-77
2021/05/24 12:07:03;;;;;;;1.65;0.90;;;32.00;46.70;;;;;;4993701;28;20034;-78
2021/05/24 12:09:41;;;;;;;1.48;0.73;;;32.20;45.70;;;;;;4993840;28;20026;-82
2021/05/24 12:12:08;;;;;;;1.67;1.23;;;32.30;45.80;;;;;;4993538;28;20552;-77
2021/05/24 12:14:36;;;;;;;1.10;0.70;;;32.10;45.40;;;;;;4992248;28;20095;-83
2021/05/24 12:17:29;;;;;;;2.70;0.90;;;32.10;46.10;;;;;;4993839;28;20030;-87
2021/05/24 12:19:56;;;;;;;5.47;1.35;;;32.30;45.60;;;;;;4994896;28;20345;-77
2021/05/24 12:22:26;;;;;;;2.30;0.68;;;32.30;44.70;;;;;;4993505;28;20035;-84
2021/05/24 12:24:54;;;;;;;1.67;0.80;;;32.20;45.30;;;;;;4993590;28;20414;-77
2021/05/24 12:27:21;;;;;;;3.13;0.73;;;32.40;44.90;;;;;;4993272;28;20037;-76
2021/05/24 12:29:53;;;;;;;3.75;0.85;;;32.50;45.30;;;;;;4993226;28;20386;-77
2021/05/24 12:32:33;;;;;;;0.65;0.60;;;32.50;45.30;;;;;;4993485;28;20531;-85
2021/05/24 12:35:03;;;;;;;0.52;0.50;;;32.60;44.90;;;;;;4993253;28;20027;-85
2021/05/24 12:37:30;;;;;;;1.42;0.90;;;32.60;44.90;;;;;;4993193;28;20083;-77
2021/05/24 12:39:56;;;;;;;1.23;0.90;;;32.70;45.50;;;;;;4993146;28;20030;-84
2021/05/24 12:42:23;;;;;;;0.73;0.50;;;32.40;44.40;;;;;;4993086;28;20471;-78
2021/05/24 12:44:49;;;;;;;1.75;0.68;;;32.30;44.00;;;;;;4993122;28;20601;-84
2021/05/24 12:47:18;;;;;;;2.30;0.80;;;32.20;44.40;;;;;;4991677;28;20052;-81
2021/05/24 12:49:47;;;;;;;2.45;0.75;;;32.30;44.70;;;;;;4993050;28;20022;-85
2021/05/24 12:52:14;;;;;;;0.68;0.65;;;32.40;45.20;;;;;;4993094;28;20060;-86
2021/05/24 12:54:51;;;;;;;1.52;0.60;;;32.60;44.90;;;;;;4992839;28;20111;-77
2021/05/24 12:57:19;;;;;;;1.63;0.60;;;32.60;44.30;;;;;;4992933;28;20026;-77